^^
Meteo Knjazevac Station Historical Data
Daily Summary for July 9, 2021 Units:  Metric    English   Both
Daily Weekly Monthly Yearly Custom
  High: Low: Average:
Temperature: 37.5 °C 16.1 °C 26.9 °C
Dew Point: 20.9 °C 13.6 °C 17.1 °C
Humidity: 86% 33% 59%
Wind Speed: 12.9km/h 0km/h 3.7km/h
Wind Gust: 22.5km/h - -
Wind- - West
Pressure: 1019.9 hPa 1017.8 hPa -
Precipitation: 0 mm    
Historical Graphs
 
 
Tabular Data for July 9, 2021
Time Temperature Dew Point Pressure Wind Wind Speed Wind Gust Humidity Rainfall Rate (Hourly) solar Conditions
00:00 20.4 °C 15.2 °C 1017.8 hPa WNW 1.6 km/h 6.4 km/h 72% 0 mm 0 W/m2
00:10 20.2 °C 15.2 °C 1017.8 hPa WSW 3.2 km/h 4.8 km/h 73% 0 mm 0 W/m2
00:20 20.1 °C 15.1 °C 1017.8 hPa NW 1.6 km/h 8 km/h 73% 0 mm 0 W/m2
00:30 20.1 °C 15.3 °C 1017.8 hPa Calm   1.6 km/h 74% 0 mm 0 W/m2
00:40 19.9 °C 15.1 °C 1018.2 hPa Calm   3.2 km/h 74% 0 mm 0 W/m2
00:50 19.6 °C 15.1 °C 1018.2 hPa NW 1.6 km/h 3.2 km/h 75% 0 mm 0 W/m2
01:00 19.5 °C 14.9 °C 1017.8 hPa WNW 1.6 km/h 3.2 km/h 75% 0 mm 0 W/m2
01:10 19.3 °C 15.2 °C 1017.8 hPa WNW 3.2 km/h 6.4 km/h 77% 0 mm 0 W/m2
01:20 19.2 °C 15.1 °C 1017.8 hPa WNW 3.2 km/h 6.4 km/h 77% 0 mm 0 W/m2
01:30 19.1 °C 14.6 °C 1017.8 hPa West 3.2 km/h 8 km/h 75% 0 mm 0 W/m2
01:40 18.9 °C 14.8 °C 1017.8 hPa Calm   6.4 km/h 77% 0 mm 0 W/m2
01:50 18.6 °C 14.7 °C 1017.8 hPa WNW 1.6 km/h 3.2 km/h 78% 0 mm 0 W/m2
02:00 18.3 °C 14.6 °C 1017.8 hPa West 3.2 km/h 8 km/h 79% 0 mm 0 W/m2
02:10 18.3 °C 14.4 °C 1018.2 hPa West 4.8 km/h 8 km/h 78% 0 mm 0 W/m2
02:20 18.1 °C 14.2 °C 1018.2 hPa West 3.2 km/h 8 km/h 78% 0 mm 0 W/m2
02:30 18.1 °C 14.4 °C 1018.2 hPa WSW 1.6 km/h 4.8 km/h 79% 0 mm 0 W/m2
02:40 17.9 °C 14.2 °C 1018.2 hPa Calm   3.2 km/h 79% 0 mm 0 W/m2
02:50 17.8 °C 14.3 °C 1018.5 hPa Calm   3.2 km/h 80% 0 mm 0 W/m2
03:00 17.8 °C 14.3 °C 1018.5 hPa Calm   3.2 km/h 80% 0 mm 0 W/m2
03:10 17.6 °C 14.1 °C 1018.5 hPa Calm   3.2 km/h 80% 0 mm 0 W/m2
03:20 17.5 °C 14 °C 1018.5 hPa WNW 1.6 km/h 3.2 km/h 80% 0 mm 0 W/m2
03:30 17.5 °C 14.2 °C 1018.5 hPa Calm   3.2 km/h 81% 0 mm 0 W/m2
03:40 17.5 °C 14.2 °C 1018.5 hPa Calm   3.2 km/h 81% 0 mm 0 W/m2
03:50 17.2 °C 13.9 °C 1018.5 hPa West 1.6 km/h 3.2 km/h 81% 0 mm 0 W/m2
04:00 17 °C 14.1 °C 1018.5 hPa Calm   3.2 km/h 83% 0 mm 0 W/m2
04:10 16.9 °C 14 °C 1018.8 hPa NW 1.6 km/h 3.2 km/h 83% 0 mm 0 W/m2
04:20 16.9 °C 14 °C 1018.8 hPa Calm   3.2 km/h 83% 0 mm 0 W/m2
04:30 16.8 °C 14.1 °C 1018.8 hPa NNW 1.6 km/h 3.2 km/h 84% 0 mm 0 W/m2
04:40 16.6 °C 13.9 °C 1018.8 hPa Calm   3.2 km/h 84% 0 mm 0 W/m2
04:50 16.4 °C 13.7 °C 1018.8 hPa WNW 1.6 km/h 3.2 km/h 84% 0 mm 0 W/m2
05:00 16.2 °C 13.7 °C 1019.2 hPa WSW 3.2 km/h 6.4 km/h 85% 0 mm 0 W/m2
05:10 16.1 °C 13.6 °C 1019.2 hPa West 3.2 km/h 8 km/h 85% 0 mm 0 W/m2
05:20 16.2 °C 13.7 °C 1019.2 hPa WNW 3.2 km/h 8 km/h 85% 0 mm 0 W/m2
05:30 16.3 °C 13.8 °C 1019.2 hPa West 3.2 km/h 4.8 km/h 85% 0 mm 4 W/m2
05:40 16.2 °C 13.7 °C 1019.5 hPa West 1.6 km/h 3.2 km/h 85% 0 mm 9 W/m2
05:50 16.2 °C 13.7 °C 1019.5 hPa WNW 1.6 km/h 3.2 km/h 85% 0 mm 17 W/m2
06:00 16.2 °C 13.7 °C 1019.5 hPa NW 1.6 km/h 4.8 km/h 85% 0 mm 28 W/m2
06:10 16.3 °C 13.8 °C 1019.5 hPa Calm   3.2 km/h 85% 0 mm 42 W/m2
06:20 16.3 °C 13.8 °C 1019.5 hPa WNW 1.6 km/h 4.8 km/h 85% 0 mm 58 W/m2
06:30 16.4 °C 14.1 °C 1019.5 hPa WNW 1.6 km/h 4.8 km/h 86% 0 mm 77 W/m2
06:40 16.4 °C 14.1 °C 1019.5 hPa WNW 1.6 km/h 3.2 km/h 86% 0 mm 98 W/m2
06:50 16.4 °C 14.1 °C 1019.9 hPa West 3.2 km/h 6.4 km/h 86% 0 mm 125 W/m2
07:00 16.6 °C 14.2 °C 1019.9 hPa West 1.6 km/h 4.8 km/h 86% 0 mm 152 W/m2
07:10 16.8 °C 14.4 °C 1019.9 hPa WNW 1.6 km/h 3.2 km/h 86% 0 mm 173 W/m2
07:20 17.1 °C 14.7 °C 1019.9 hPa WNW 1.6 km/h 3.2 km/h 86% 0 mm 202 W/m2
07:30 17.5 °C 14.9 °C 1019.9 hPa West 3.2 km/h 4.8 km/h 85% 0 mm 241 W/m2
07:40 17.9 °C 15.2 °C 1019.9 hPa WNW 3.2 km/h 8 km/h 84% 0 mm 265 W/m2
07:50 18.4 °C 15.1 °C 1019.9 hPa WNW 1.6 km/h 6.4 km/h 81% 0 mm 310 W/m2
08:00 18.9 °C 15.6 °C 1019.9 hPa Calm   4.8 km/h 81% 0 mm 358 W/m2
08:10 19.5 °C 16.2 °C 1019.9 hPa WNW 1.6 km/h 4.8 km/h 81% 0 mm 403 W/m2
08:20 20.1 °C 16.4 °C 1019.9 hPa WNW 1.6 km/h 6.4 km/h 79% 0 mm 436 W/m2
08:30 20.7 °C 16.6 °C 1019.9 hPa WNW 1.6 km/h 4.8 km/h 77% 0 mm 472 W/m2
08:40 21.4 °C 16.8 °C 1019.9 hPa WNW 1.6 km/h 4.8 km/h 75% 0 mm 503 W/m2
08:50 22.2 °C 17.4 °C 1019.9 hPa West 1.6 km/h 8 km/h 74% 0 mm 536 W/m2
09:00 23.2 °C 17.8 °C 1019.9 hPa West 3.2 km/h 6.4 km/h 72% 0 mm 575 W/m2
09:10 24.6 °C 18.8 °C 1019.9 hPa West 1.6 km/h 4.8 km/h 70% 0 mm 609 W/m2
09:20 26 °C 19.7 °C 1019.9 hPa WSW 1.6 km/h 4.8 km/h 68% 0 mm 636 W/m2
09:30 27.2 °C 19.8 °C 1019.9 hPa WNW 1.6 km/h 4.8 km/h 64% 0 mm 662 W/m2
09:40 28.3 °C 19.6 °C 1019.9 hPa SE 1.6 km/h 6.4 km/h 59% 0 mm 687 W/m2
09:50 29.1 °C 19.7 °C 1019.9 hPa SE 1.6 km/h 4.8 km/h 57% 0 mm 711 W/m2
10:00 30 °C 19.7 °C 1019.5 hPa South 1.6 km/h 9.7 km/h 54% 0 mm 733 W/m2
10:10 30.7 °C 20.1 °C 1019.9 hPa SSE 3.2 km/h 9.7 km/h 53% 0 mm 755 W/m2
10:20 31.3 °C 19.7 °C 1019.5 hPa SSE 3.2 km/h 8 km/h 50% 0 mm 775 W/m2
10:30 32 °C 19.9 °C 1019.5 hPa SSW 1.6 km/h 8 km/h 49% 0 mm 795 W/m2
10:40 32.5 °C 20.1 °C 1019.5 hPa South 1.6 km/h 8 km/h 48% 0 mm 813 W/m2
10:50 32.9 °C 20.1 °C 1019.2 hPa SSW 1.6 km/h 9.7 km/h 47% 0 mm 158 W/m2
11:00 33.3 °C 20.1 °C 1019.5 hPa SSE 1.6 km/h 12.9 km/h 46% 0 mm 844 W/m2
11:10 33.9 °C 20.3 °C 1019.2 hPa SSE 1.6 km/h 9.7 km/h 45% 0 mm 173 W/m2
11:20 34.2 °C 20.2 °C 1019.2 hPa SW 4.8 km/h 9.7 km/h 44% 0 mm 572 W/m2
11:30 34.6 °C 20.6 °C 1019.2 hPa South 4.8 km/h 11.3 km/h 44% 0 mm 881 W/m2
11:40 34.7 °C 20.7 °C 1019.2 hPa WSW 9.7 km/h 16.1 km/h 44% 0 mm 890 W/m2
11:50 34.9 °C 20.8 °C 1019.2 hPa SSW 4.8 km/h 12.9 km/h 44% 0 mm 898 W/m2
12:00 35.1 °C 20.7 °C 1019.2 hPa SSW 8 km/h 12.9 km/h 43% 0 mm 904 W/m2
12:10 35.2 °C 20.7 °C 1019.2 hPa SW 3.2 km/h 12.9 km/h 43% 0 mm 909 W/m2
12:20 35.3 °C 20.4 °C 1019.2 hPa SW 4.8 km/h 12.9 km/h 42% 0 mm 793 W/m2
12:30 35.4 °C 20.6 °C 1019.2 hPa WSW 3.2 km/h 12.9 km/h 42% 0 mm 914 W/m2
12:40 35.5 °C 20.6 °C 1019.2 hPa WSW 9.7 km/h 19.3 km/h 42% 0 mm 914 W/m2
12:50 35.8 °C 20.9 °C 1019.2 hPa SW 4.8 km/h 16.1 km/h 42% 0 mm 912 W/m2
13:00 35.9 °C 20.6 °C 1019.2 hPa WSW 8 km/h 17.7 km/h 41% 0 mm 909 W/m2
13:10 35.9 °C 20.6 °C 1019.2 hPa West 4.8 km/h 19.3 km/h 41% 0 mm 904 W/m2
13:20 36 °C 20.3 °C 1018.8 hPa WNW 4.8 km/h 14.5 km/h 40% 0 mm 898 W/m2
13:30 36.1 °C 20 °C 1018.8 hPa WNW 9.7 km/h 16.1 km/h 39% 0 mm 890 W/m2
13:40 36.3 °C 19.3 °C 1018.8 hPa West 9.7 km/h 16.1 km/h 37% 0 mm 881 W/m2
13:50 36.5 °C 20.3 °C 1018.8 hPa WSW 9.7 km/h 19.3 km/h 39% 0 mm 870 W/m2
14:00 36.6 °C 19.9 °C 1018.8 hPa WSW 11.3 km/h 19.3 km/h 38% 0 mm 857 W/m2
14:10 36.8 °C 19.7 °C 1018.5 hPa SSW 4.8 km/h 19.3 km/h 37% 0 mm 844 W/m2
14:20 37 °C 19.4 °C 1018.5 hPa West 4.8 km/h 19.3 km/h 36% 0 mm 829 W/m2
14:30 37.1 °C 19.1 °C 1018.5 hPa WSW 9.7 km/h 17.7 km/h 35% 0 mm 812 W/m2
14:40 37.1 °C 19.1 °C 1018.5 hPa SW 12.9 km/h 20.9 km/h 35% 0 mm 794 W/m2
14:50 37.1 °C 19.1 °C 1018.5 hPa WSW 9.7 km/h 19.3 km/h 35% 0 mm 775 W/m2
15:00 37.2 °C 19.2 °C 1018.2 hPa West 9.7 km/h 19.3 km/h 35% 0 mm 754 W/m2
15:10 37.3 °C 18.8 °C 1018.2 hPa WNW 4.8 km/h 19.3 km/h 34% 0 mm 733 W/m2
15:20 37.4 °C 19.4 °C 1018.2 hPa West 9.7 km/h 12.9 km/h 35% 0 mm 710 W/m2
15:30 37.5 °C 19 °C 1018.2 hPa SW 8 km/h 12.9 km/h 34% 0 mm 686 W/m2
15:40 37.4 °C 18.4 °C 1017.8 hPa WSW 9.7 km/h 20.9 km/h 33% 0 mm 661 W/m2
15:50 37.5 °C 19 °C 1017.8 hPa WSW 8 km/h 20.9 km/h 34% 0 mm 635 W/m2
16:00 37.5 °C 19 °C 1017.8 hPa West 9.7 km/h 19.3 km/h 34% 0 mm 609 W/m2
16:10 37.4 °C 18.9 °C 1017.8 hPa West 9.7 km/h 19.3 km/h 34% 0 mm 581 W/m2
16:20 37.5 °C 19.4 °C 1017.8 hPa West 8 km/h 17.7 km/h 35% 0 mm 553 W/m2
16:30 37.5 °C 19 °C 1017.8 hPa West 9.7 km/h 19.3 km/h 34% 0 mm 524 W/m2
16:40 37.3 °C 18.8 °C 1017.8 hPa West 11.3 km/h 19.3 km/h 34% 0 mm 494 W/m2
16:50 37.2 °C 18.7 °C 1017.8 hPa West 9.7 km/h 16.1 km/h 34% 0 mm 464 W/m2
17:00 37.2 °C 18.7 °C 1017.8 hPa West 9.7 km/h 17.7 km/h 34% 0 mm 427 W/m2
17:10 37.1 °C 18.6 °C 1017.8 hPa West 9.7 km/h 22.5 km/h 34% 0 mm 398 W/m2
17:20 36.9 °C 18.4 °C 1017.8 hPa West 9.7 km/h 20.9 km/h 34% 0 mm 366 W/m2
17:30 36.9 °C 18.4 °C 1017.8 hPa West 9.7 km/h 14.5 km/h 34% 0 mm 332 W/m2
17:40 36.7 °C 18.3 °C 1017.8 hPa West 9.7 km/h 16.1 km/h 34% 0 mm 298 W/m2
17:50 36.5 °C 18.1 °C 1017.8 hPa West 9.7 km/h 19.3 km/h 34% 0 mm 266 W/m2
18:00 36.4 °C 18 °C 1017.8 hPa West 8 km/h 14.5 km/h 34% 0 mm 229 W/m2
18:10 36.3 °C 18.4 °C 1017.8 hPa West 8 km/h 14.5 km/h 35% 0 mm 196 W/m2
18:20 36.1 °C 18.2 °C 1017.8 hPa West 3.2 km/h 11.3 km/h 35% 0 mm 165 W/m2
18:30 35.9 °C 18.1 °C 1017.8 hPa West 3.2 km/h 9.7 km/h 35% 0 mm 137 W/m2
18:40 35.8 °C 17.9 °C 1017.8 hPa NW 3.2 km/h 8 km/h 35% 0 mm 108 W/m2
18:50 35.5 °C 17.2 °C 1017.8 hPa NNW 3.2 km/h 9.7 km/h 34% 0 mm 80 W/m2
19:00 35.1 °C 17.3 °C 1017.8 hPa North 3.2 km/h 8 km/h 35% 0 mm 57 W/m2
19:10 34.5 °C 17.7 °C 1017.8 hPa NNW 3.2 km/h 4.8 km/h 37% 0 mm 38 W/m2
19:20 33.8 °C 17.6 °C 1017.8 hPa Calm   6.4 km/h 38% 0 mm 24 W/m2
19:30 33.1 °C 18.4 °C 1017.8 hPa North 1.6 km/h 3.2 km/h 42% 0 mm 13 W/m2
19:40 32.2 °C 18.4 °C 1017.8 hPa South 3.2 km/h 4.8 km/h 44% 0 mm 5 W/m2
19:50 31.4 °C 17.7 °C 1018.2 hPa WNW 3.2 km/h 8 km/h 44% 0 mm 0 W/m2
20:00 30.7 °C 18.1 °C 1018.2 hPa WSW 3.2 km/h 8 km/h 47% 0 mm 0 W/m2
20:10 30.1 °C 18.2 °C 1018.2 hPa West 1.6 km/h 4.8 km/h 49% 0 mm 0 W/m2
20:20 29.4 °C 17.9 °C 1018.5 hPa WSW 4.8 km/h 8 km/h 50% 0 mm 0 W/m2
20:30 28.8 °C 17.4 °C 1018.5 hPa SW 3.2 km/h 4.8 km/h 50% 0 mm 0 W/m2
20:40 28.2 °C 17.4 °C 1018.8 hPa SW 1.6 km/h 3.2 km/h 52% 0 mm 0 W/m2
20:50 27.7 °C 17.6 °C 1018.8 hPa WSW 1.6 km/h 3.2 km/h 54% 0 mm 0 W/m2
21:00 27.2 °C 17.4 °C 1019.2 hPa WSW 1.6 km/h 3.2 km/h 55% 0 mm 0 W/m2
21:10 26.7 °C 16.9 °C 1019.2 hPa Calm   3.2 km/h 55% 0 mm 0 W/m2
21:20 26.3 °C 16.6 °C 1019.2 hPa WSW 3.2 km/h 6.4 km/h 55% 0 mm 0 W/m2
21:30 25.9 °C 16.5 °C 1019.2 hPa SW 1.6 km/h 4.8 km/h 56% 0 mm 0 W/m2
21:40 25.6 °C 16.4 °C 1019.2 hPa Calm   6.4 km/h 57% 0 mm 0 W/m2
21:50 25.3 °C 16.4 °C 1019.2 hPa Calm   4.8 km/h 58% 0 mm 0 W/m2
22:00 24.8 °C 17.1 °C 1019.2 hPa WSW 3.2 km/h 6.4 km/h 62% 0 mm 0 W/m2
22:10 24.4 °C 16.9 °C 1019.2 hPa West 3.2 km/h 4.8 km/h 63% 0 mm 0 W/m2
22:20 24 °C 16.5 °C 1019.5 hPa NNW 1.6 km/h 4.8 km/h 63% 0 mm 0 W/m2
22:30 23.8 °C 16.3 °C 1019.5 hPa South 1.6 km/h 4.8 km/h 63% 0 mm 0 W/m2
22:40 23.7 °C 16.2 °C 1019.5 hPa SSW 3.2 km/h 4.8 km/h 63% 0 mm 0 W/m2
22:50 23.6 °C 16.2 °C 1019.5 hPa Calm   3.2 km/h 63% 0 mm 0 W/m2
23:00 23.3 °C 16.3 °C 1019.5 hPa WSW 3.2 km/h 4.8 km/h 65% 0 mm 0 W/m2
23:10 23 °C 16.1 °C 1019.5 hPa West 1.6 km/h 4.8 km/h 65% 0 mm 0 W/m2
23:20 22.9 °C 15.9 °C 1019.5 hPa Calm   3.2 km/h 65% 0 mm 0 W/m2
23:30 22.8 °C 16.3 °C 1019.5 hPa Calm   3.2 km/h 67% 0 mm 0 W/m2
23:40 22.3 °C 16.4 °C 1019.5 hPa Calm   3.2 km/h 69% 0 mm 0 W/m2
23:50 22 °C 16.1 °C 1019.9 hPa West 1.6 km/h 3.2 km/h 69% 0 mm 0 W/m2
Knjazevac, Serbia
Compliments of Weather Underground - 2 mb